sensor_id;sensor_type;location;lat;lon;timestamp;P1;durP1;ratioP1;P2;durP2;ratioP2
1276;SDS011;631;51.024;13.826;2023-02-11T00:01:40;36.13;;;30.40;;
1276;SDS011;631;51.024;13.826;2023-02-11T00:04:06;36.43;;;29.63;;
1276;SDS011;631;51.024;13.826;2023-02-11T00:06:32;38.23;;;29.83;;
1276;SDS011;631;51.024;13.826;2023-02-11T00:08:59;39.30;;;30.50;;
1276;SDS011;631;51.024;13.826;2023-02-11T00:11:25;36.33;;;30.40;;
1276;SDS011;631;51.024;13.826;2023-02-11T00:13:55;36.30;;;30.27;;
1276;SDS011;631;51.024;13.826;2023-02-11T00:16:22;35.38;;;29.45;;
1276;SDS011;631;51.024;13.826;2023-02-11T00:18:48;38.00;;;30.03;;
1276;SDS011;631;51.024;13.826;2023-02-11T00:21:21;33.97;;;29.33;;
1276;SDS011;631;51.024;13.826;2023-02-11T00:23:48;34.20;;;28.13;;
1276;SDS011;631;51.024;13.826;2023-02-11T00:26:15;36.37;;;29.97;;
1276;SDS011;631;51.024;13.826;2023-02-11T00:28:43;34.90;;;29.42;;
1276;SDS011;631;51.024;13.826;2023-02-11T00:31:09;36.05;;;29.08;;
1276;SDS011;631;51.024;13.826;2023-02-11T00:33:36;34.47;;;28.30;;
1276;SDS011;631;51.024;13.826;2023-02-11T00:36:05;36.83;;;30.10;;
1276;SDS011;631;51.024;13.826;2023-02-11T00:38:32;32.55;;;28.80;;
1276;SDS011;631;51.024;13.826;2023-02-11T00:40:58;33.10;;;29.57;;
1276;SDS011;631;51.024;13.826;2023-02-11T00:43:24;33.40;;;28.77;;
1276;SDS011;631;51.024;13.826;2023-02-11T00:45:49;37.20;;;29.77;;
1276;SDS011;631;51.024;13.826;2023-02-11T00:48:15;33.00;;;28.37;;
1276;SDS011;631;51.024;13.826;2023-02-11T00:50:41;35.30;;;28.97;;
1276;SDS011;631;51.024;13.826;2023-02-11T00:53:06;36.60;;;29.10;;
1276;SDS011;631;51.024;13.826;2023-02-11T00:55:32;37.60;;;29.17;;
1276;SDS011;631;51.024;13.826;2023-02-11T00:57:58;33.57;;;28.40;;
1276;SDS011;631;51.024;13.826;2023-02-11T01:00:24;35.33;;;28.30;;
1276;SDS011;631;51.024;13.826;2023-02-11T01:02:50;35.90;;;28.38;;
1276;SDS011;631;51.024;13.826;2023-02-11T01:05:16;35.65;;;28.63;;
1276;SDS011;631;51.024;13.826;2023-02-11T01:07:42;32.28;;;28.20;;
1276;SDS011;631;51.024;13.826;2023-02-11T01:10:08;34.20;;;28.23;;
1276;SDS011;631;51.024;13.826;2023-02-11T01:12:34;32.40;;;26.35;;
1276;SDS011;631;51.024;13.826;2023-02-11T01:15:00;32.40;;;27.93;;
1276;SDS011;631;51.024;13.826;2023-02-11T01:17:26;33.83;;;29.00;;
1276;SDS011;631;51.024;13.826;2023-02-11T01:19:52;36.27;;;28.00;;
1276;SDS011;631;51.024;13.826;2023-02-11T01:22:17;35.10;;;28.50;;
1276;SDS011;631;51.024;13.826;2023-02-11T01:24:43;33.20;;;28.53;;
1276;SDS011;631;51.024;13.826;2023-02-11T01:27:08;34.77;;;28.40;;
1276;SDS011;631;51.024;13.826;2023-02-11T01:29:34;33.60;;;27.87;;
1276;SDS011;631;51.024;13.826;2023-02-11T01:32:00;31.63;;;28.23;;
1276;SDS011;631;51.024;13.826;2023-02-11T01:34:25;32.57;;;28.70;;
1276;SDS011;631;51.024;13.826;2023-02-11T01:36:55;32.63;;;27.70;;
1276;SDS011;631;51.024;13.826;2023-02-11T01:39:21;31.40;;;28.00;;
1276;SDS011;631;51.024;13.826;2023-02-11T01:41:47;32.73;;;28.57;;
1276;SDS011;631;51.024;13.826;2023-02-11T01:44:23;32.60;;;27.70;;
1276;SDS011;631;51.024;13.826;2023-02-11T01:46:54;34.63;;;29.05;;
1276;SDS011;631;51.024;13.826;2023-02-11T01:49:21;33.90;;;28.75;;
1276;SDS011;631;51.024;13.826;2023-02-11T01:54:50;31.75;;;27.20;;
1276;SDS011;631;51.024;13.826;2023-02-11T01:57:37;33.55;;;29.35;;
1276;SDS011;631;51.024;13.826;2023-02-11T02:02:44;35.22;;;29.00;;
1276;SDS011;631;51.024;13.826;2023-02-11T02:10:50;30.67;;;27.20;;
1276;SDS011;631;51.024;13.826;2023-02-11T02:13:20;35.00;;;29.30;;
1276;SDS011;631;51.024;13.826;2023-02-11T02:15:50;31.35;;;28.15;;
1276;SDS011;631;51.024;13.826;2023-02-11T02:21:21;31.75;;;28.35;;
1276;SDS011;631;51.024;13.826;2023-02-11T02:27:14;32.95;;;28.38;;
1276;SDS011;631;51.024;13.826;2023-02-11T02:35:12;32.53;;;29.10;;
1276;SDS011;631;51.024;13.826;2023-02-11T02:38:07;35.55;;;30.20;;
1276;SDS011;631;51.024;13.826;2023-02-11T02:43:17;32.92;;;28.42;;
1276;SDS011;631;51.024;13.826;2023-02-11T02:45:45;32.95;;;29.27;;
1276;SDS011;631;51.024;13.826;2023-02-11T02:56:47;32.17;;;28.42;;
1276;SDS011;631;51.024;13.826;2023-02-11T02:59:41;34.20;;;29.30;;
1276;SDS011;631;51.024;13.826;2023-02-11T03:02:38;31.73;;;28.27;;
1276;SDS011;631;51.024;13.826;2023-02-11T03:07:51;33.75;;;29.55;;
1276;SDS011;631;51.024;13.826;2023-02-11T03:12:51;30.33;;;27.23;;
1276;SDS011;631;51.024;13.826;2023-02-11T03:15:19;31.40;;;28.20;;
1276;SDS011;631;51.024;13.826;2023-02-11T03:17:47;32.65;;;29.25;;
1276;SDS011;631;51.024;13.826;2023-02-11T03:20:16;30.85;;;27.73;;
1276;SDS011;631;51.024;13.826;2023-02-11T03:23:06;32.70;;;27.52;;
1276;SDS011;631;51.024;13.826;2023-02-11T03:25:43;30.73;;;27.42;;
1276;SDS011;631;51.024;13.826;2023-02-11T03:28:31;32.47;;;28.98;;
1276;SDS011;631;51.024;13.826;2023-02-11T03:31:13;31.83;;;28.48;;
1276;SDS011;631;51.024;13.826;2023-02-11T03:39:35;34.60;;;29.80;;
1276;SDS011;631;51.024;13.826;2023-02-11T03:42:05;33.08;;;29.55;;
1276;SDS011;631;51.024;13.826;2023-02-11T03:44:35;31.95;;;28.02;;
1276;SDS011;631;51.024;13.826;2023-02-11T03:47:06;32.70;;;29.35;;
1276;SDS011;631;51.024;13.826;2023-02-11T03:49:34;33.33;;;28.85;;
1276;SDS011;631;51.024;13.826;2023-02-11T03:52:02;32.03;;;28.55;;
1276;SDS011;631;51.024;13.826;2023-02-11T03:54:30;33.28;;;29.67;;
1276;SDS011;631;51.024;13.826;2023-02-11T03:56:57;31.83;;;28.43;;
1276;SDS011;631;51.024;13.826;2023-02-11T03:59:24;31.65;;;28.35;;
1276;SDS011;631;51.024;13.826;2023-02-11T04:01:50;32.10;;;28.57;;
1276;SDS011;631;51.024;13.826;2023-02-11T04:04:16;30.13;;;27.02;;
1276;SDS011;631;51.024;13.826;2023-02-11T04:06:42;32.13;;;28.13;;
1276;SDS011;631;51.024;13.826;2023-02-11T04:09:08;33.50;;;29.87;;
1276;SDS011;631;51.024;13.826;2023-02-11T04:11:34;34.47;;;29.02;;
1276;SDS011;631;51.024;13.826;2023-02-11T04:14:00;33.17;;;29.60;;
1276;SDS011;631;51.024;13.826;2023-02-11T04:16:25;33.23;;;28.80;;
1276;SDS011;631;51.024;13.826;2023-02-11T04:18:51;34.43;;;29.40;;
1276;SDS011;631;51.024;13.826;2023-02-11T04:21:17;31.27;;;27.33;;
1276;SDS011;631;51.024;13.826;2023-02-11T04:23:42;32.90;;;29.40;;
1276;SDS011;631;51.024;13.826;2023-02-11T04:26:08;33.53;;;28.27;;
1276;SDS011;631;51.024;13.826;2023-02-11T04:28:34;34.40;;;28.23;;
1276;SDS011;631;51.024;13.826;2023-02-11T04:31:00;33.45;;;27.98;;
1276;SDS011;631;51.024;13.826;2023-02-11T04:33:25;32.27;;;28.80;;
1276;SDS011;631;51.024;13.826;2023-02-11T04:35:51;33.33;;;29.73;;
1276;SDS011;631;51.024;13.826;2023-02-11T04:38:17;34.57;;;29.47;;
1276;SDS011;631;51.024;13.826;2023-02-11T04:40:42;32.60;;;28.57;;
1276;SDS011;631;51.024;13.826;2023-02-11T04:43:08;31.50;;;28.23;;
1276;SDS011;631;51.024;13.826;2023-02-11T04:45:33;37.40;;;30.80;;
1276;SDS011;631;51.024;13.826;2023-02-11T04:48:00;33.23;;;29.63;;
1276;SDS011;631;51.024;13.826;2023-02-11T04:50:27;32.97;;;29.45;;
1276;SDS011;631;51.024;13.826;2023-02-11T04:52:53;33.03;;;29.52;;
1276;SDS011;631;51.024;13.826;2023-02-11T04:55:19;31.87;;;27.97;;
1276;SDS011;631;51.024;13.826;2023-02-11T04:57:44;31.90;;;28.60;;
1276;SDS011;631;51.024;13.826;2023-02-11T05:00:10;32.37;;;28.90;;
1276;SDS011;631;51.024;13.826;2023-02-11T05:02:36;32.60;;;28.80;;
1276;SDS011;631;51.024;13.826;2023-02-11T05:05:02;32.40;;;29.07;;
1276;SDS011;631;51.024;13.826;2023-02-11T05:07:28;33.67;;;30.07;;
1276;SDS011;631;51.024;13.826;2023-02-11T05:09:53;32.67;;;29.27;;
1276;SDS011;631;51.024;13.826;2023-02-11T05:12:19;34.50;;;30.00;;
1276;SDS011;631;51.024;13.826;2023-02-11T05:14:45;33.63;;;29.95;;
1276;SDS011;631;51.024;13.826;2023-02-11T05:17:11;33.30;;;29.70;;
1276;SDS011;631;51.024;13.826;2023-02-11T05:19:37;35.20;;;30.37;;
1276;SDS011;631;51.024;13.826;2023-02-11T05:22:02;34.20;;;29.87;;
1276;SDS011;631;51.024;13.826;2023-02-11T05:24:28;32.80;;;29.30;;
1276;SDS011;631;51.024;13.826;2023-02-11T05:26:55;34.38;;;29.50;;
1276;SDS011;631;51.024;13.826;2023-02-11T05:29:21;35.80;;;29.87;;
1276;SDS011;631;51.024;13.826;2023-02-11T05:31:47;38.73;;;31.70;;
1276;SDS011;631;51.024;13.826;2023-02-11T05:34:12;34.40;;;29.60;;
1276;SDS011;631;51.024;13.826;2023-02-11T05:36:38;34.80;;;30.50;;
1276;SDS011;631;51.024;13.826;2023-02-11T05:39:04;34.30;;;30.70;;
1276;SDS011;631;51.024;13.826;2023-02-11T05:41:29;34.00;;;30.30;;
1276;SDS011;631;51.024;13.826;2023-02-11T05:43:55;35.53;;;31.17;;
1276;SDS011;631;51.024;13.826;2023-02-11T05:46:20;35.30;;;29.17;;
1276;SDS011;631;51.024;13.826;2023-02-11T05:48:46;37.13;;;32.63;;
1276;SDS011;631;51.024;13.826;2023-02-11T05:51:12;33.70;;;30.10;;
1276;SDS011;631;51.024;13.826;2023-02-11T05:53:37;39.33;;;32.27;;
1276;SDS011;631;51.024;13.826;2023-02-11T05:56:03;35.93;;;32.10;;
1276;SDS011;631;51.024;13.826;2023-02-11T05:58:29;37.37;;;31.80;;
1276;SDS011;631;51.024;13.826;2023-02-11T06:00:54;32.83;;;29.33;;
1276;SDS011;631;51.024;13.826;2023-02-11T06:03:20;40.63;;;32.97;;
1276;SDS011;631;51.024;13.826;2023-02-11T06:05:46;37.03;;;31.17;;
1276;SDS011;631;51.024;13.826;2023-02-11T06:08:11;40.23;;;32.63;;
1276;SDS011;631;51.024;13.826;2023-02-11T06:10:37;36.33;;;31.00;;
1276;SDS011;631;51.024;13.826;2023-02-11T06:13:03;39.53;;;31.23;;
1276;SDS011;631;51.024;13.826;2023-02-11T06:15:28;39.90;;;31.97;;
1276;SDS011;631;51.024;13.826;2023-02-11T06:17:54;36.57;;;31.07;;
1276;SDS011;631;51.024;13.826;2023-02-11T06:20:20;39.00;;;32.37;;
1276;SDS011;631;51.024;13.826;2023-02-11T06:22:46;37.83;;;32.92;;
1276;SDS011;631;51.024;13.826;2023-02-11T06:25:12;36.80;;;31.43;;
1276;SDS011;631;51.024;13.826;2023-02-11T06:27:38;37.10;;;32.28;;
1276;SDS011;631;51.024;13.826;2023-02-11T06:30:05;36.17;;;31.90;;
1276;SDS011;631;51.024;13.826;2023-02-11T06:32:31;38.08;;;31.58;;
1276;SDS011;631;51.024;13.826;2023-02-11T06:34:57;37.97;;;33.33;;
1276;SDS011;631;51.024;13.826;2023-02-11T06:37:23;36.03;;;31.87;;
1276;SDS011;631;51.024;13.826;2023-02-11T06:39:48;37.87;;;31.80;;
1276;SDS011;631;51.024;13.826;2023-02-11T06:42:14;38.30;;;32.40;;
1276;SDS011;631;51.024;13.826;2023-02-11T06:44:39;37.60;;;31.73;;
1276;SDS011;631;51.024;13.826;2023-02-11T06:47:06;37.47;;;32.87;;
1276;SDS011;631;51.024;13.826;2023-02-11T06:49:31;35.92;;;30.98;;
1276;SDS011;631;51.024;13.826;2023-02-11T06:51:57;38.83;;;31.80;;
1276;SDS011;631;51.024;13.826;2023-02-11T06:54:23;40.53;;;32.40;;
1276;SDS011;631;51.024;13.826;2023-02-11T06:56:48;34.20;;;30.47;;
1276;SDS011;631;51.024;13.826;2023-02-11T06:59:15;36.40;;;31.60;;
1276;SDS011;631;51.024;13.826;2023-02-11T07:01:44;38.78;;;32.75;;
1276;SDS011;631;51.024;13.826;2023-02-11T07:04:10;35.50;;;31.80;;
1276;SDS011;631;51.024;13.826;2023-02-11T07:06:36;36.40;;;31.35;;
1276;SDS011;631;51.024;13.826;2023-02-11T07:09:03;36.37;;;31.17;;
1276;SDS011;631;51.024;13.826;2023-02-11T07:11:29;37.20;;;31.40;;
1276;SDS011;631;51.024;13.826;2023-02-11T07:13:58;38.33;;;32.60;;
1276;SDS011;631;51.024;13.826;2023-02-11T07:16:26;36.20;;;31.35;;
1276;SDS011;631;51.024;13.826;2023-02-11T07:18:52;35.97;;;30.33;;
1276;SDS011;631;51.024;13.826;2023-02-11T07:21:19;40.40;;;31.30;;
1276;SDS011;631;51.024;13.826;2023-02-11T07:23:48;34.85;;;31.15;;
1276;SDS011;631;51.024;13.826;2023-02-11T07:26:14;36.13;;;30.87;;
1276;SDS011;631;51.024;13.826;2023-02-11T07:28:42;34.33;;;30.63;;
1276;SDS011;631;51.024;13.826;2023-02-11T07:31:09;34.90;;;31.10;;
1276;SDS011;631;51.024;13.826;2023-02-11T07:33:37;35.13;;;31.20;;
1276;SDS011;631;51.024;13.826;2023-02-11T07:36:03;47.70;;;41.20;;
1276;SDS011;631;51.024;13.826;2023-02-11T07:38:31;62.88;;;48.05;;
1276;SDS011;631;51.024;13.826;2023-02-11T07:41:01;42.70;;;37.05;;
1276;SDS011;631;51.024;13.826;2023-02-11T07:43:30;35.17;;;31.20;;
1276;SDS011;631;51.024;13.826;2023-02-11T07:45:55;32.85;;;29.20;;
1276;SDS011;631;51.024;13.826;2023-02-11T07:48:21;36.40;;;31.50;;
1276;SDS011;631;51.024;13.826;2023-02-11T07:50:47;36.50;;;32.60;;
1276;SDS011;631;51.024;13.826;2023-02-11T07:53:13;36.53;;;30.90;;
1276;SDS011;631;51.024;13.826;2023-02-11T07:55:38;34.37;;;30.30;;
1276;SDS011;631;51.024;13.826;2023-02-11T07:58:04;34.30;;;30.70;;
1276;SDS011;631;51.024;13.826;2023-02-11T08:00:29;35.23;;;30.80;;
1276;SDS011;631;51.024;13.826;2023-02-11T08:02:55;35.90;;;30.47;;
1276;SDS011;631;51.024;13.826;2023-02-11T08:05:22;36.30;;;30.40;;
1276;SDS011;631;51.024;13.826;2023-02-11T08:07:51;37.13;;;31.20;;
1276;SDS011;631;51.024;13.826;2023-02-11T08:10:17;36.33;;;31.83;;
1276;SDS011;631;51.024;13.826;2023-02-11T08:12:43;37.43;;;32.13;;
1276;SDS011;631;51.024;13.826;2023-02-11T08:15:08;38.20;;;31.70;;
1276;SDS011;631;51.024;13.826;2023-02-11T08:17:34;35.43;;;31.67;;
1276;SDS011;631;51.024;13.826;2023-02-11T08:20:00;36.42;;;30.90;;
1276;SDS011;631;51.024;13.826;2023-02-11T08:22:29;34.45;;;30.70;;
1276;SDS011;631;51.024;13.826;2023-02-11T08:24:56;36.42;;;30.85;;
1276;SDS011;631;51.024;13.826;2023-02-11T08:27:22;35.55;;;31.67;;
1276;SDS011;631;51.024;13.826;2023-02-11T08:29:48;35.50;;;31.58;;
1276;SDS011;631;51.024;13.826;2023-02-11T08:32:14;32.77;;;29.27;;
1276;SDS011;631;51.024;13.826;2023-02-11T08:34:39;37.80;;;31.67;;
1276;SDS011;631;51.024;13.826;2023-02-11T08:37:05;37.97;;;31.43;;
1276;SDS011;631;51.024;13.826;2023-02-11T08:39:30;34.83;;;31.13;;
1276;SDS011;631;51.024;13.826;2023-02-11T08:41:56;35.67;;;30.93;;
1276;SDS011;631;51.024;13.826;2023-02-11T08:44:22;37.73;;;31.70;;
1276;SDS011;631;51.024;13.826;2023-02-11T08:46:49;33.20;;;29.60;;
1276;SDS011;631;51.024;13.826;2023-02-11T08:49:15;35.22;;;30.15;;
1276;SDS011;631;51.024;13.826;2023-02-11T08:51:40;35.13;;;31.30;;
1276;SDS011;631;51.024;13.826;2023-02-11T08:54:07;35.63;;;30.45;;
1276;SDS011;631;51.024;13.826;2023-02-11T08:56:33;34.25;;;29.05;;
1276;SDS011;631;51.024;13.826;2023-02-11T08:59:00;34.85;;;31.05;;
1276;SDS011;631;51.024;13.826;2023-02-11T09:01:26;37.00;;;30.40;;
1276;SDS011;631;51.024;13.826;2023-02-11T09:03:54;35.28;;;29.85;;
1276;SDS011;631;51.024;13.826;2023-02-11T09:06:20;39.47;;;31.33;;
1276;SDS011;631;51.024;13.826;2023-02-11T09:08:47;35.85;;;30.40;;
1276;SDS011;631;51.024;13.826;2023-02-11T09:11:15;35.15;;;30.52;;
1276;SDS011;631;51.024;13.826;2023-02-11T09:13:42;34.90;;;30.45;;
1276;SDS011;631;51.024;13.826;2023-02-11T09:16:12;33.53;;;30.00;;
1276;SDS011;631;51.024;13.826;2023-02-11T09:18:47;35.38;;;31.30;;
1276;SDS011;631;51.024;13.826;2023-02-11T09:21:13;33.72;;;30.15;;
1276;SDS011;631;51.024;13.826;2023-02-11T09:23:40;33.80;;;30.13;;
1276;SDS011;631;51.024;13.826;2023-02-11T09:26:18;34.13;;;30.48;;
1276;SDS011;631;51.024;13.826;2023-02-11T09:28:46;32.90;;;29.45;;
1276;SDS011;631;51.024;13.826;2023-02-11T09:31:13;34.28;;;30.58;;
1276;SDS011;631;51.024;13.826;2023-02-11T09:33:42;34.60;;;30.60;;
1276;SDS011;631;51.024;13.826;2023-02-11T09:36:12;37.38;;;30.77;;
1276;SDS011;631;51.024;13.826;2023-02-11T09:38:40;34.17;;;30.52;;
1276;SDS011;631;51.024;13.826;2023-02-11T09:41:12;36.72;;;30.20;;
1276;SDS011;631;51.024;13.826;2023-02-11T09:43:58;33.67;;;30.10;;
1276;SDS011;631;51.024;13.826;2023-02-11T09:46:30;32.72;;;29.38;;
1276;SDS011;631;51.024;13.826;2023-02-11T09:48:59;33.53;;;30.02;;
1276;SDS011;631;51.024;13.826;2023-02-11T09:54:19;34.67;;;30.80;;
1276;SDS011;631;51.024;13.826;2023-02-11T09:57:01;33.33;;;29.73;;
1276;SDS011;631;51.024;13.826;2023-02-11T09:59:26;36.83;;;31.23;;
1276;SDS011;631;51.024;13.826;2023-02-11T10:01:53;34.40;;;29.83;;
1276;SDS011;631;51.024;13.826;2023-02-11T10:04:47;34.85;;;29.95;;
1276;SDS011;631;51.024;13.826;2023-02-11T10:07:36;33.08;;;28.88;;
1276;SDS011;631;51.024;13.826;2023-02-11T10:10:26;34.83;;;31.03;;
1276;SDS011;631;51.024;13.826;2023-02-11T10:13:24;35.10;;;30.50;;
1276;SDS011;631;51.024;13.826;2023-02-11T10:21:37;33.13;;;29.30;;
1276;SDS011;631;51.024;13.826;2023-02-11T10:24:51;34.90;;;30.77;;
1276;SDS011;631;51.024;13.826;2023-02-11T10:27:32;36.90;;;29.45;;
1276;SDS011;631;51.024;13.826;2023-02-11T10:30:02;34.97;;;31.17;;
1276;SDS011;631;51.024;13.826;2023-02-11T10:35:22;32.63;;;29.23;;
1276;SDS011;631;51.024;13.826;2023-02-11T10:37:48;36.25;;;30.92;;
1276;SDS011;631;51.024;13.826;2023-02-11T10:40:17;32.90;;;28.97;;
1276;SDS011;631;51.024;13.826;2023-02-11T10:42:49;31.27;;;27.97;;
1276;SDS011;631;51.024;13.826;2023-02-11T10:45:22;33.27;;;29.20;;
1276;SDS011;631;51.024;13.826;2023-02-11T10:47:59;33.97;;;29.77;;
1276;SDS011;631;51.024;13.826;2023-02-11T10:50:27;33.00;;;28.77;;
1276;SDS011;631;51.024;13.826;2023-02-11T10:55:52;31.33;;;27.30;;
1276;SDS011;631;51.024;13.826;2023-02-11T10:58:27;30.77;;;27.53;;
1276;SDS011;631;51.024;13.826;2023-02-11T11:00:58;32.90;;;29.50;;
1276;SDS011;631;51.024;13.826;2023-02-11T11:03:25;32.20;;;28.90;;
1276;SDS011;631;51.024;13.826;2023-02-11T11:05:55;32.13;;;28.67;;
1276;SDS011;631;51.024;13.826;2023-02-11T11:08:36;33.43;;;29.90;;
1276;SDS011;631;51.024;13.826;2023-02-11T11:11:11;33.87;;;30.23;;
1276;SDS011;631;51.024;13.826;2023-02-11T11:13:40;32.97;;;29.47;;
1276;SDS011;631;51.024;13.826;2023-02-11T11:16:28;32.37;;;28.87;;
1276;SDS011;631;51.024;13.826;2023-02-11T11:21:36;33.13;;;28.70;;
1276;SDS011;631;51.024;13.826;2023-02-11T11:24:13;32.23;;;28.77;;
1276;SDS011;631;51.024;13.826;2023-02-11T11:26:43;36.13;;;27.93;;
1276;SDS011;631;51.024;13.826;2023-02-11T11:29:35;32.57;;;29.23;;
1276;SDS011;631;51.024;13.826;2023-02-11T11:32:21;32.50;;;29.00;;
1276;SDS011;631;51.024;13.826;2023-02-11T11:35:01;32.73;;;29.17;;
1276;SDS011;631;51.024;13.826;2023-02-11T11:37:33;30.63;;;27.40;;
1276;SDS011;631;51.024;13.826;2023-02-11T11:40:07;34.53;;;29.27;;
1276;SDS011;631;51.024;13.826;2023-02-11T11:42:36;33.23;;;28.90;;
1276;SDS011;631;51.024;13.826;2023-02-11T11:47:42;32.50;;;29.00;;
1276;SDS011;631;51.024;13.826;2023-02-11T11:55:26;29.33;;;26.10;;
1276;SDS011;631;51.024;13.826;2023-02-11T11:57:57;32.87;;;29.33;;
1276;SDS011;631;51.024;13.826;2023-02-11T12:00:25;32.17;;;28.77;;
1276;SDS011;631;51.024;13.826;2023-02-11T12:06:05;33.07;;;29.53;;
1276;SDS011;631;51.024;13.826;2023-02-11T12:11:39;32.77;;;29.30;;
1276;SDS011;631;51.024;13.826;2023-02-11T12:14:18;31.03;;;27.60;;
1276;SDS011;631;51.024;13.826;2023-02-11T12:17:07;28.77;;;24.57;;
1276;SDS011;631;51.024;13.826;2023-02-11T12:22:56;29.50;;;26.37;;
1276;SDS011;631;51.024;13.826;2023-02-11T12:25:47;30.03;;;26.03;;
1276;SDS011;631;51.024;13.826;2023-02-11T12:28:26;30.13;;;27.03;;
1276;SDS011;631;51.024;13.826;2023-02-11T12:31:27;29.47;;;26.53;;
1276;SDS011;631;51.024;13.826;2023-02-11T12:53:59;31.13;;;27.87;;
1276;SDS011;631;51.024;13.826;2023-02-11T12:56:30;33.17;;;29.60;;
1276;SDS011;631;51.024;13.826;2023-02-11T12:59:04;31.27;;;28.10;;
1276;SDS011;631;51.024;13.826;2023-02-11T13:01:40;29.80;;;26.60;;
1276;SDS011;631;51.024;13.826;2023-02-11T13:04:20;30.40;;;27.27;;
1276;SDS011;631;51.024;13.826;2023-02-11T13:06:58;32.40;;;28.87;;
1276;SDS011;631;51.024;13.826;2023-02-11T13:09:31;32.17;;;27.20;;
1276;SDS011;631;51.024;13.826;2023-02-11T13:12:04;31.50;;;28.20;;
1276;SDS011;631;51.024;13.826;2023-02-11T13:14:50;31.87;;;28.57;;
1276;SDS011;631;51.024;13.826;2023-02-11T13:17:24;31.20;;;27.50;;
1276;SDS011;631;51.024;13.826;2023-02-11T13:19:58;31.00;;;27.70;;
1276;SDS011;631;51.024;13.826;2023-02-11T13:22:31;31.17;;;27.77;;
1276;SDS011;631;51.024;13.826;2023-02-11T13:25:04;30.93;;;27.07;;
1276;SDS011;631;51.024;13.826;2023-02-11T13:33:03;30.20;;;26.97;;
1276;SDS011;631;51.024;13.826;2023-02-11T13:35:45;30.80;;;27.03;;
1276;SDS011;631;51.024;13.826;2023-02-11T13:40:40;28.63;;;25.63;;
1276;SDS011;631;51.024;13.826;2023-02-11T13:43:20;30.70;;;26.43;;
1276;SDS011;631;51.024;13.826;2023-02-11T13:45:48;30.93;;;27.63;;
1276;SDS011;631;51.024;13.826;2023-02-11T13:48:17;29.77;;;26.80;;
1276;SDS011;631;51.024;13.826;2023-02-11T13:50:52;31.17;;;27.30;;
1276;SDS011;631;51.024;13.826;2023-02-11T13:53:20;31.53;;;28.10;;
1276;SDS011;631;51.024;13.826;2023-02-11T13:55:47;28.73;;;25.70;;
1276;SDS011;631;51.024;13.826;2023-02-11T13:58:32;30.00;;;26.77;;
1276;SDS011;631;51.024;13.826;2023-02-11T14:01:04;30.27;;;27.17;;
1276;SDS011;631;51.024;13.826;2023-02-11T14:03:32;30.20;;;27.00;;
1276;SDS011;631;51.024;13.826;2023-02-11T14:06:19;29.87;;;26.80;;
1276;SDS011;631;51.024;13.826;2023-02-11T14:14:26;30.70;;;27.60;;
1276;SDS011;631;51.024;13.826;2023-02-11T14:22:18;30.13;;;26.93;;
1276;SDS011;631;51.024;13.826;2023-02-11T14:25:23;31.27;;;28.07;;
1276;SDS011;631;51.024;13.826;2023-02-11T14:27:52;33.57;;;28.10;;
1276;SDS011;631;51.024;13.826;2023-02-11T14:38:57;29.83;;;26.77;;
1276;SDS011;631;51.024;13.826;2023-02-11T14:41:44;30.27;;;27.17;;
1276;SDS011;631;51.024;13.826;2023-02-11T14:46:46;30.40;;;27.27;;
1276;SDS011;631;51.024;13.826;2023-02-11T14:49:23;31.73;;;28.33;;
1276;SDS011;631;51.024;13.826;2023-02-11T14:51:53;30.57;;;27.27;;
1276;SDS011;631;51.024;13.826;2023-02-11T14:54:25;29.92;;;26.83;;
1276;SDS011;631;51.024;13.826;2023-02-11T14:57:04;29.53;;;26.53;;
1276;SDS011;631;51.024;13.826;2023-02-11T14:59:31;28.77;;;25.63;;
1276;SDS011;631;51.024;13.826;2023-02-11T15:01:57;28.87;;;25.80;;
1276;SDS011;631;51.024;13.826;2023-02-11T15:04:27;29.67;;;26.43;;
1276;SDS011;631;51.024;13.826;2023-02-11T15:06:55;30.90;;;27.60;;
1276;SDS011;631;51.024;13.826;2023-02-11T15:09:42;31.87;;;28.30;;
1276;SDS011;631;51.024;13.826;2023-02-11T15:12:18;28.63;;;25.63;;
1276;SDS011;631;51.024;13.826;2023-02-11T15:14:52;29.33;;;26.20;;
1276;SDS011;631;51.024;13.826;2023-02-11T15:17:21;29.50;;;25.97;;
1276;SDS011;631;51.024;13.826;2023-02-11T15:19:50;28.80;;;25.87;;
1276;SDS011;631;51.024;13.826;2023-02-11T15:22:28;29.23;;;26.00;;
1276;SDS011;631;51.024;13.826;2023-02-11T15:25:07;30.30;;;27.23;;
1276;SDS011;631;51.024;13.826;2023-02-11T15:27:41;30.13;;;27.13;;
1276;SDS011;631;51.024;13.826;2023-02-11T15:32:46;29.23;;;25.07;;
1276;SDS011;631;51.024;13.826;2023-02-11T15:35:14;29.00;;;25.90;;
1276;SDS011;631;51.024;13.826;2023-02-11T15:37:40;28.23;;;25.37;;
1276;SDS011;631;51.024;13.826;2023-02-11T15:42:56;29.47;;;26.27;;
1276;SDS011;631;51.024;13.826;2023-02-11T15:45:30;28.87;;;25.93;;
1276;SDS011;631;51.024;13.826;2023-02-11T15:48:15;28.20;;;25.30;;
1276;SDS011;631;51.024;13.826;2023-02-11T15:51:07;30.70;;;27.60;;
1276;SDS011;631;51.024;13.826;2023-02-11T15:53:36;30.20;;;27.20;;
1276;SDS011;631;51.024;13.826;2023-02-11T15:56:09;27.47;;;24.77;;
1276;SDS011;631;51.024;13.826;2023-02-11T15:58:58;28.17;;;25.57;;
1276;SDS011;631;51.024;13.826;2023-02-11T16:01:33;33.07;;;29.37;;
1276;SDS011;631;51.024;13.826;2023-02-11T16:04:01;28.40;;;25.40;;
1276;SDS011;631;51.024;13.826;2023-02-11T16:07:01;28.53;;;25.43;;
1276;SDS011;631;51.024;13.826;2023-02-11T16:09:21;27.57;;;24.87;;
1276;SDS011;631;51.024;13.826;2023-02-11T16:12:01;30.80;;;27.50;;
1276;SDS011;631;51.024;13.826;2023-02-11T16:14:48;29.03;;;25.90;;
1276;SDS011;631;51.024;13.826;2023-02-11T16:17:26;30.47;;;27.23;;
1276;SDS011;631;51.024;13.826;2023-02-11T16:19:53;29.40;;;25.77;;
1276;SDS011;631;51.024;13.826;2023-02-11T16:22:28;31.70;;;28.33;;
1276;SDS011;631;51.024;13.826;2023-02-11T16:24:59;31.23;;;27.97;;
1276;SDS011;631;51.024;13.826;2023-02-11T16:27:27;31.50;;;28.20;;
1276;SDS011;631;51.024;13.826;2023-02-11T16:29:56;30.07;;;27.00;;
1276;SDS011;631;51.024;13.826;2023-02-11T16:32:24;29.40;;;26.10;;
1276;SDS011;631;51.024;13.826;2023-02-11T16:34:52;30.73;;;27.73;;
1276;SDS011;631;51.024;13.826;2023-02-11T16:37:21;31.60;;;28.40;;
1276;SDS011;631;51.024;13.826;2023-02-11T16:39:47;31.47;;;28.07;;
1276;SDS011;631;51.024;13.826;2023-02-11T16:42:13;30.40;;;27.10;;
1276;SDS011;631;51.024;13.826;2023-02-11T16:44:38;33.50;;;28.57;;
1276;SDS011;631;51.024;13.826;2023-02-11T16:47:05;33.50;;;28.27;;
1276;SDS011;631;51.024;13.826;2023-02-11T16:49:35;32.65;;;29.13;;
1276;SDS011;631;51.024;13.826;2023-02-11T16:52:05;31.47;;;28.17;;
1276;SDS011;631;51.024;13.826;2023-02-11T16:54:33;32.20;;;28.92;;
1276;SDS011;631;51.024;13.826;2023-02-11T16:56:59;34.80;;;31.10;;
1276;SDS011;631;51.024;13.826;2023-02-11T16:59:25;33.45;;;29.88;;
1276;SDS011;631;51.024;13.826;2023-02-11T17:01:52;34.70;;;31.00;;
1276;SDS011;631;51.024;13.826;2023-02-11T17:04:19;35.97;;;32.05;;
1276;SDS011;631;51.024;13.826;2023-02-11T17:06:48;37.10;;;32.35;;
1276;SDS011;631;51.024;13.826;2023-02-11T17:09:15;36.97;;;33.00;;
1276;SDS011;631;51.024;13.826;2023-02-11T17:11:44;38.58;;;34.47;;
1276;SDS011;631;51.024;13.826;2023-02-11T17:14:10;39.40;;;34.17;;
1276;SDS011;631;51.024;13.826;2023-02-11T17:16:35;37.37;;;33.40;;
1276;SDS011;631;51.024;13.826;2023-02-11T17:19:01;35.40;;;31.80;;
1276;SDS011;631;51.024;13.826;2023-02-11T17:21:27;37.33;;;32.60;;